createdAt,value
2023-11-30T00:00:58.455Z,13.52
2023-11-30T00:03:26.299Z,18.00
2023-11-30T00:05:53.941Z,14.93
2023-11-30T00:08:21.651Z,13.80
2023-11-30T00:10:49.283Z,13.70
2023-11-30T00:13:16.872Z,16.10
2023-11-30T00:15:47.672Z,14.18
2023-11-30T00:18:15.743Z,16.02
2023-11-30T00:20:43.400Z,14.68
2023-11-30T00:23:11.117Z,16.40
2023-11-30T00:25:38.793Z,16.85
2023-11-30T00:28:06.389Z,15.68
2023-11-30T00:30:34.018Z,15.32
2023-11-30T00:33:01.925Z,17.50
2023-11-30T00:35:29.517Z,18.00
2023-11-30T00:37:57.134Z,16.73
2023-11-30T00:40:24.752Z,15.05
2023-11-30T00:42:52.554Z,14.85
2023-11-30T00:45:20.246Z,16.88
2023-11-30T00:47:48.038Z,17.13
2023-11-30T00:50:16.753Z,16.95
2023-11-30T00:52:44.426Z,18.33
2023-11-30T00:55:12.094Z,20.40
2023-11-30T00:57:39.827Z,18.75
2023-11-30T01:00:10.180Z,20.73
2023-11-30T01:02:39.657Z,20.92
2023-11-30T01:05:07.810Z,18.17
2023-11-30T01:07:37.266Z,20.60
2023-11-30T01:10:06.063Z,18.42
2023-11-30T01:12:34.950Z,15.90
2023-11-30T01:15:02.776Z,19.30
2023-11-30T01:17:30.489Z,17.98
2023-11-30T01:19:58.746Z,18.23
2023-11-30T01:22:26.342Z,18.50
2023-11-30T01:24:54.107Z,19.55
2023-11-30T01:27:21.760Z,19.17
2023-11-30T01:29:51.240Z,18.85
2023-11-30T01:32:18.923Z,22.38
2023-11-30T01:34:47.652Z,17.23
2023-11-30T01:37:15.480Z,18.83
2023-11-30T01:39:43.216Z,18.98
2023-11-30T01:42:10.924Z,18.55
2023-11-30T01:44:38.484Z,18.95
2023-11-30T01:47:07.435Z,19.23
2023-11-30T01:49:35.177Z,15.68
2023-11-30T01:52:03.275Z,19.88
2023-11-30T01:54:31.132Z,19.50
2023-11-30T01:57:00.070Z,17.20
2023-11-30T01:59:28.381Z,17.08
2023-11-30T02:01:56.393Z,20.05
2023-11-30T02:04:24.131Z,17.13
2023-11-30T02:06:52.011Z,17.08
2023-11-30T02:09:19.850Z,14.52
2023-11-30T02:11:47.877Z,12.93
2023-11-30T02:14:15.421Z,16.63
2023-11-30T02:16:43.196Z,18.40
2023-11-30T02:19:11.320Z,15.88
2023-11-30T02:21:38.959Z,14.65
2023-11-30T02:24:08.289Z,12.88
2023-11-30T02:26:35.982Z,17.02
2023-11-30T02:29:03.593Z,13.43
2023-11-30T02:31:31.357Z,15.93
2023-11-30T02:33:59.202Z,14.48
2023-11-30T02:36:26.981Z,12.93
2023-11-30T02:38:54.680Z,16.67
2023-11-30T02:41:22.457Z,14.57
2023-11-30T02:43:50.051Z,15.95
2023-11-30T02:46:17.795Z,15.93
2023-11-30T02:48:45.464Z,15.18
2023-11-30T02:51:13.548Z,19.10
2023-11-30T02:53:41.195Z,17.42
2023-11-30T02:56:09.162Z,24.08
2023-11-30T02:58:36.680Z,20.52
2023-11-30T03:01:05.069Z,15.75
2023-11-30T03:03:32.760Z,16.48
2023-11-30T03:06:00.819Z,16.50
2023-11-30T03:08:28.499Z,16.70
2023-11-30T03:10:56.197Z,17.88
2023-11-30T03:13:23.742Z,15.40
2023-11-30T03:15:51.464Z,14.75
2023-11-30T03:18:19.216Z,15.73
2023-11-30T03:20:47.034Z,15.45
2023-11-30T03:23:14.767Z,11.52
2023-11-30T03:25:42.468Z,12.02
2023-11-30T03:28:10.201Z,11.10
2023-11-30T03:30:37.989Z,14.00
2023-11-30T03:33:05.625Z,14.02
2023-11-30T03:35:34.228Z,10.95
2023-11-30T03:38:01.860Z,13.68
2023-11-30T03:40:29.493Z,19.30
2023-11-30T03:42:57.093Z,22.30
2023-11-30T03:45:24.777Z,15.00
2023-11-30T03:47:53.794Z,17.02
2023-11-30T03:50:21.489Z,16.98
2023-11-30T03:52:49.263Z,19.48
2023-11-30T03:55:16.983Z,18.83
2023-11-30T03:57:44.577Z,17.23
2023-11-30T04:00:14.814Z,20.05
2023-11-30T04:02:43.671Z,17.08
2023-11-30T04:05:15.192Z,18.92
2023-11-30T04:07:44.667Z,16.77
2023-11-30T04:10:13.644Z,16.42
2023-11-30T04:12:42.090Z,14.90
2023-11-30T04:15:10.037Z,13.85
2023-11-30T04:17:37.844Z,16.33
2023-11-30T04:20:06.509Z,15.93
2023-11-30T04:22:35.952Z,19.63
2023-11-30T04:25:03.721Z,15.70
2023-11-30T04:27:31.358Z,14.45
2023-11-30T04:29:59.155Z,14.25
2023-11-30T04:32:27.020Z,16.40
2023-11-30T04:34:54.715Z,17.58
2023-11-30T04:37:22.269Z,14.38
2023-11-30T04:39:49.856Z,19.42
2023-11-30T04:42:17.855Z,16.70
2023-11-30T04:44:45.734Z,15.73
2023-11-30T04:47:13.367Z,17.45
2023-11-30T04:49:42.060Z,18.58
2023-11-30T04:52:10.220Z,16.75
2023-11-30T04:54:39.277Z,14.63
2023-11-30T04:57:07.427Z,18.38
2023-11-30T04:59:35.142Z,16.92
2023-11-30T05:02:02.822Z,14.23
2023-11-30T05:04:30.617Z,14.68
2023-11-30T05:06:58.221Z,16.65
2023-11-30T05:09:26.116Z,15.75
2023-11-30T05:11:53.792Z,15.57
2023-11-30T05:14:21.428Z,16.33
2023-11-30T05:16:49.092Z,17.95
2023-11-30T05:19:16.814Z,15.07
2023-11-30T05:21:44.432Z,16.05
2023-11-30T05:24:12.093Z,18.73
2023-11-30T05:26:39.763Z,15.73
2023-11-30T05:29:08.546Z,16.50
2023-11-30T05:31:36.085Z,18.92
2023-11-30T05:34:03.916Z,15.48
2023-11-30T05:36:31.659Z,13.55
2023-11-30T05:39:00.044Z,15.35
2023-11-30T05:41:27.769Z,18.40
2023-11-30T05:43:55.344Z,15.60
2023-11-30T05:46:23.016Z,15.90
2023-11-30T05:48:50.735Z,14.23
2023-11-30T05:51:18.307Z,13.07
2023-11-30T05:53:46.153Z,14.95
2023-11-30T05:56:13.842Z,14.43
2023-11-30T05:58:41.643Z,17.98
2023-11-30T06:01:09.244Z,20.30
2023-11-30T06:03:37.439Z,20.55
2023-11-30T06:06:11.175Z,20.52
2023-11-30T06:08:38.929Z,18.77
2023-11-30T06:11:06.710Z,19.38
2023-11-30T06:13:34.329Z,23.73
2023-11-30T06:16:02.108Z,22.52
2023-11-30T06:18:29.771Z,26.40
2023-11-30T06:20:57.605Z,24.48
2023-11-30T06:23:25.530Z,26.45
2023-11-30T06:25:53.230Z,25.92
2023-11-30T06:28:23.469Z,28.48
2023-11-30T06:30:51.208Z,38.58
2023-11-30T06:33:18.847Z,26.08
2023-11-30T06:35:46.490Z,35.45
2023-11-30T06:38:14.131Z,60.90
2023-11-30T06:40:41.762Z,40.67
2023-11-30T06:43:09.354Z,23.98
2023-11-30T06:45:37.101Z,27.88
2023-11-30T06:48:04.909Z,27.13
2023-11-30T06:50:32.648Z,28.27
2023-11-30T06:53:00.401Z,23.95
2023-11-30T06:55:28.020Z,22.80
2023-11-30T06:57:55.578Z,35.35
2023-11-30T07:00:23.441Z,44.78
2023-11-30T07:02:51.046Z,32.42
2023-11-30T07:05:18.690Z,30.70
2023-11-30T07:07:46.403Z,31.77
2023-11-30T07:10:14.347Z,32.50
2023-11-30T07:12:42.062Z,27.00
2023-11-30T07:15:10.112Z,29.38
2023-11-30T07:17:37.704Z,26.13
2023-11-30T07:20:06.101Z,21.40
2023-11-30T07:22:33.829Z,16.55
2023-11-30T07:25:02.230Z,18.00
2023-11-30T07:27:29.861Z,15.10
2023-11-30T07:29:57.555Z,13.57
2023-11-30T07:32:25.337Z,16.55
2023-11-30T07:34:53.045Z,13.23
2023-11-30T07:37:23.388Z,13.00
2023-11-30T07:39:51.382Z,11.00
2023-11-30T07:42:29.367Z,9.10
2023-11-30T07:45:03.815Z,11.05
2023-11-30T07:47:32.366Z,9.57
2023-11-30T07:50:00.662Z,9.90
2023-11-30T07:52:28.418Z,9.02
2023-11-30T07:54:56.127Z,7.20
2023-11-30T07:57:23.820Z,6.97
2023-11-30T07:59:51.514Z,6.47
2023-11-30T08:02:19.051Z,9.75
2023-11-30T08:04:46.861Z,7.03
2023-11-30T08:07:14.523Z,8.55
2023-11-30T08:09:42.248Z,6.75
2023-11-30T08:12:09.955Z,5.63
2023-11-30T08:14:38.482Z,5.95
2023-11-30T08:17:06.484Z,6.75
2023-11-30T08:19:34.279Z,7.60
2023-11-30T08:22:02.074Z,10.38
2023-11-30T08:24:30.589Z,6.82
2023-11-30T08:26:58.334Z,5.55
2023-11-30T08:29:26.056Z,5.57
2023-11-30T08:31:53.649Z,6.15
2023-11-30T08:34:21.959Z,5.15
2023-11-30T08:36:49.593Z,8.07
2023-11-30T08:39:23.813Z,5.45
2023-11-30T08:41:51.933Z,5.60
2023-11-30T08:44:19.524Z,3.70
2023-11-30T08:46:47.244Z,6.40
2023-11-30T08:49:14.875Z,5.53
2023-11-30T08:51:45.858Z,4.32
2023-11-30T08:54:14.105Z,4.78
2023-11-30T08:56:42.064Z,4.43
2023-11-30T08:59:09.925Z,6.15
2023-11-30T09:01:37.742Z,4.45
2023-11-30T09:04:06.679Z,3.90
2023-11-30T09:06:34.903Z,5.72
2023-11-30T09:09:03.090Z,5.45
2023-11-30T09:11:35.346Z,6.72
2023-11-30T09:14:03.199Z,7.35
2023-11-30T09:16:30.771Z,7.28
2023-11-30T09:18:58.520Z,9.60
2023-11-30T09:21:27.250Z,9.43
2023-11-30T09:23:55.252Z,9.90
2023-11-30T09:26:23.168Z,8.32
2023-11-30T09:28:51.191Z,9.70
2023-11-30T09:31:19.001Z,7.75
2023-11-30T09:33:46.749Z,18.83
2023-11-30T09:36:14.506Z,18.20
2023-11-30T09:38:42.488Z,14.75
2023-11-30T09:41:13.904Z,14.48
2023-11-30T09:43:41.702Z,9.90
2023-11-30T09:46:10.760Z,8.68
2023-11-30T09:48:38.857Z,14.20
2023-11-30T09:51:07.650Z,20.60
2023-11-30T09:53:35.889Z,16.58
2023-11-30T09:56:04.616Z,15.95
2023-11-30T09:58:34.626Z,14.02
2023-11-30T10:01:02.609Z,13.77
2023-11-30T10:03:34.207Z,11.95
2023-11-30T10:06:02.503Z,16.20
2023-11-30T10:08:30.144Z,15.27
2023-11-30T10:10:57.805Z,16.75
2023-11-30T10:13:26.615Z,19.80
2023-11-30T10:15:54.436Z,16.88
2023-11-30T10:18:22.457Z,16.60
2023-11-30T10:20:50.225Z,16.92
2023-11-30T10:23:17.861Z,17.52
2023-11-30T10:25:47.558Z,14.35
2023-11-30T10:28:15.945Z,24.52
2023-11-30T10:30:45.465Z,16.92
2023-11-30T10:33:15.813Z,20.73
2023-11-30T10:35:48.054Z,17.83
2023-11-30T10:42:12.749Z,17.35
2023-11-30T10:44:42.010Z,18.02
2023-11-30T10:47:12.876Z,22.45
2023-11-30T10:49:42.126Z,17.42
2023-11-30T10:52:11.465Z,21.38
2023-11-30T10:54:51.156Z,18.52
2023-11-30T10:57:20.782Z,17.95
2023-11-30T10:59:51.172Z,19.70
2023-11-30T11:02:19.107Z,15.90
2023-11-30T11:04:47.801Z,17.13
2023-11-30T11:07:17.962Z,14.80
2023-11-30T11:09:54.310Z,18.05
2023-11-30T11:12:28.075Z,22.52
2023-11-30T11:15:16.008Z,22.75
2023-11-30T11:17:53.983Z,20.65
2023-11-30T11:20:27.849Z,24.10
2023-11-30T11:23:05.868Z,21.45
2023-11-30T11:25:39.636Z,21.08
2023-11-30T11:30:48.850Z,19.25
2023-11-30T11:33:20.014Z,18.60
2023-11-30T11:35:47.806Z,20.48
2023-11-30T11:38:15.629Z,18.33
2023-11-30T11:40:43.555Z,19.42
2023-11-30T11:43:11.384Z,15.63
2023-11-30T11:45:40.689Z,14.88
2023-11-30T11:48:13.363Z,16.52
2023-11-30T11:50:41.246Z,19.13
2023-11-30T11:53:08.943Z,19.23
2023-11-30T11:55:36.922Z,18.90
2023-11-30T11:58:04.518Z,19.30
2023-11-30T12:00:32.256Z,21.30
2023-11-30T12:03:07.603Z,19.25
2023-11-30T12:05:35.490Z,20.42
2023-11-30T12:08:04.393Z,22.27
2023-11-30T12:10:34.569Z,24.63
2023-11-30T12:13:03.627Z,26.30
2023-11-30T12:15:31.345Z,26.35
2023-11-30T12:17:59.535Z,28.63
2023-11-30T12:20:27.148Z,26.05
2023-11-30T12:22:55.138Z,27.80
2023-11-30T12:25:23.569Z,31.83
2023-11-30T12:27:51.638Z,29.30
2023-11-30T12:30:22.123Z,30.08
2023-11-30T12:32:50.401Z,30.10
2023-11-30T12:35:18.153Z,38.38
2023-11-30T12:37:45.840Z,35.00
2023-11-30T12:40:15.631Z,28.67
2023-11-30T12:42:43.508Z,32.28
2023-11-30T12:45:11.657Z,31.60
2023-11-30T12:47:42.740Z,32.17
2023-11-30T12:50:11.937Z,32.22
2023-11-30T12:52:39.922Z,30.65
2023-11-30T12:55:08.421Z,37.42
2023-11-30T12:57:36.477Z,36.67
2023-11-30T13:00:11.023Z,42.60
2023-11-30T13:02:38.885Z,35.90
2023-11-30T13:05:06.631Z,40.03
2023-11-30T13:07:34.377Z,35.88
2023-11-30T13:10:03.072Z,35.63
2023-11-30T13:12:31.995Z,36.15
2023-11-30T13:14:59.667Z,33.63
2023-11-30T13:17:28.261Z,35.65
2023-11-30T13:19:55.927Z,42.33
2023-11-30T13:22:23.617Z,42.53
2023-11-30T13:24:51.286Z,38.53
2023-11-30T13:27:19.029Z,38.80
2023-11-30T13:29:46.731Z,46.20
2023-11-30T13:32:14.510Z,47.60
2023-11-30T13:34:42.190Z,45.25
2023-11-30T13:37:10.055Z,42.28
2023-11-30T13:39:39.818Z,39.95
2023-11-30T13:42:07.555Z,38.10
2023-11-30T13:44:35.706Z,35.72
2023-11-30T13:47:03.422Z,33.55
2023-11-30T13:49:31.850Z,37.80
2023-11-30T13:51:59.495Z,38.00
2023-11-30T13:54:28.372Z,36.13
2023-11-30T13:56:56.578Z,39.22
2023-11-30T13:59:24.291Z,38.83
2023-11-30T14:01:52.562Z,38.33
2023-11-30T14:04:20.215Z,41.05
2023-11-30T14:06:51.444Z,36.63
2023-11-30T14:09:27.397Z,42.72
2023-11-30T14:11:56.184Z,31.77
2023-11-30T14:14:24.143Z,36.47
2023-11-30T14:16:51.896Z,32.83
2023-11-30T14:19:20.534Z,41.88
2023-11-30T14:21:48.336Z,34.58
2023-11-30T14:24:16.893Z,40.75
2023-11-30T14:26:49.595Z,44.08
2023-11-30T14:29:18.033Z,40.50
2023-11-30T14:31:45.673Z,40.00
2023-11-30T14:34:13.301Z,38.08
2023-11-30T14:36:41.153Z,43.67
2023-11-30T14:39:09.468Z,40.33
2023-11-30T14:41:40.279Z,45.95
2023-11-30T14:44:07.857Z,48.42
2023-11-30T14:46:37.332Z,33.90
2023-11-30T14:49:05.170Z,37.75
2023-11-30T14:51:32.873Z,38.17
2023-11-30T14:54:03.180Z,36.38
2023-11-30T14:56:31.238Z,42.85
2023-11-30T14:59:00.807Z,46.72
2023-11-30T15:01:28.651Z,42.92
2023-11-30T15:03:56.474Z,45.10
2023-11-30T15:06:24.536Z,52.22
2023-11-30T15:08:52.498Z,45.72
2023-11-30T15:11:20.990Z,44.75
2023-11-30T15:13:48.587Z,45.78
2023-11-30T15:16:21.477Z,43.10
2023-11-30T15:18:49.407Z,44.42
2023-11-30T15:21:17.065Z,40.58
2023-11-30T15:23:47.708Z,44.38
2023-11-30T15:26:18.203Z,41.45
2023-11-30T15:28:45.864Z,48.03
2023-11-30T15:31:13.566Z,40.85
2023-11-30T15:33:41.353Z,43.38
2023-11-30T15:36:10.476Z,37.67
2023-11-30T15:38:39.226Z,42.75
2023-11-30T15:41:07.017Z,39.42
2023-11-30T15:43:34.753Z,35.42
2023-11-30T15:46:04.033Z,39.33
2023-11-30T15:48:32.082Z,38.88
2023-11-30T15:51:02.486Z,40.35
2023-11-30T15:53:30.297Z,44.67
2023-11-30T15:55:58.877Z,36.08
2023-11-30T15:58:27.905Z,39.45
2023-11-30T16:00:55.860Z,44.08
2023-11-30T16:03:23.976Z,35.97
2023-11-30T16:05:52.030Z,44.58
2023-11-30T16:08:19.870Z,43.63
2023-11-30T16:10:47.471Z,42.28
2023-11-30T16:13:15.426Z,36.35
2023-11-30T16:15:43.129Z,45.55
2023-11-30T16:18:10.804Z,42.95
2023-11-30T16:20:39.344Z,51.13
2023-11-30T16:23:07.066Z,63.55
2023-11-30T16:25:34.686Z,63.45
2023-11-30T16:28:03.397Z,57.78
2023-11-30T16:30:31.057Z,59.60
2023-11-30T16:32:59.519Z,47.38
2023-11-30T16:35:27.674Z,56.83
2023-11-30T16:37:55.401Z,52.42
2023-11-30T16:40:23.408Z,58.15
2023-11-30T16:42:51.251Z,53.08
2023-11-30T16:45:19.343Z,51.45
2023-11-30T16:47:47.227Z,54.88
2023-11-30T16:50:15.928Z,60.78
2023-11-30T16:52:44.212Z,54.25
2023-11-30T16:55:13.547Z,43.95
2023-11-30T16:57:41.405Z,43.45
2023-11-30T17:00:09.426Z,40.15
2023-11-30T17:02:37.123Z,37.63
2023-11-30T17:05:05.008Z,29.95
2023-11-30T17:07:42.180Z,27.20
2023-11-30T17:10:09.856Z,31.00
2023-11-30T17:12:37.486Z,27.85
2023-11-30T17:15:06.512Z,34.35
2023-11-30T17:17:34.361Z,34.85
2023-11-30T17:20:05.817Z,38.42
2023-11-30T17:22:33.869Z,36.53
2023-11-30T17:25:01.639Z,39.95
2023-11-30T17:27:31.195Z,39.88
2023-11-30T17:29:58.912Z,40.55
2023-11-30T17:32:26.626Z,42.90
2023-11-30T17:34:55.069Z,45.78
2023-11-30T17:37:22.757Z,54.15
2023-11-30T17:39:50.409Z,48.35
2023-11-30T17:42:19.824Z,47.90
2023-11-30T17:44:47.497Z,51.70
2023-11-30T17:47:17.135Z,50.35
2023-11-30T17:49:44.798Z,53.42
2023-11-30T17:52:14.083Z,51.92
2023-11-30T17:54:41.776Z,54.53
2023-11-30T17:57:09.437Z,52.20
2023-11-30T17:59:37.171Z,56.13
2023-11-30T18:02:04.930Z,71.60
2023-11-30T18:04:33.177Z,62.40
2023-11-30T18:07:01.631Z,63.03
2023-11-30T18:09:29.364Z,65.78
2023-11-30T18:11:57.015Z,64.65
2023-11-30T18:14:32.552Z,67.45
2023-11-30T18:17:01.525Z,74.07
2023-11-30T18:19:29.947Z,73.05
2023-11-30T18:21:57.646Z,68.45
2023-11-30T18:24:31.230Z,67.90
2023-11-30T18:27:00.740Z,64.07
2023-11-30T18:29:28.833Z,59.70
2023-11-30T18:31:57.027Z,59.95
2023-11-30T18:34:24.754Z,59.53
2023-11-30T18:36:53.935Z,55.85
2023-11-30T18:39:21.745Z,59.10
2023-11-30T18:41:49.414Z,63.70
2023-11-30T18:44:17.069Z,61.50
2023-11-30T18:46:44.704Z,62.42
2023-11-30T18:49:12.391Z,55.63
2023-11-30T18:51:40.003Z,60.70
2023-11-30T18:54:07.863Z,58.72
2023-11-30T18:56:35.544Z,54.72
2023-11-30T18:59:03.293Z,63.80
2023-11-30T19:01:31.128Z,71.15
2023-11-30T19:03:58.992Z,63.90
2023-11-30T19:06:26.748Z,67.65
2023-11-30T19:08:54.503Z,72.05
2023-11-30T19:11:22.253Z,66.55
2023-11-30T19:13:49.940Z,64.03
2023-11-30T19:16:19.392Z,65.47
2023-11-30T19:18:49.015Z,62.35
2023-11-30T19:21:17.634Z,53.28
2023-11-30T19:23:48.251Z,55.35
2023-11-30T19:26:16.286Z,57.67
2023-11-30T19:28:43.836Z,59.45
2023-11-30T19:31:12.220Z,55.15
2023-11-30T19:33:39.938Z,57.25
2023-11-30T19:36:08.230Z,55.05
2023-11-30T19:38:35.895Z,54.95
2023-11-30T19:41:03.540Z,48.83
2023-11-30T19:43:31.117Z,50.15
2023-11-30T19:46:03.059Z,57.35
2023-11-30T19:48:31.371Z,57.95
2023-11-30T19:50:58.962Z,58.45
2023-11-30T19:53:26.702Z,54.45
2023-11-30T19:55:54.437Z,54.90
2023-11-30T19:58:22.181Z,55.08
2023-11-30T20:00:52.517Z,47.97
2023-11-30T20:03:20.306Z,43.53
2023-11-30T20:05:47.857Z,52.83
2023-11-30T20:08:16.417Z,43.35
2023-11-30T20:10:44.482Z,42.30
2023-11-30T20:13:12.090Z,49.33
2023-11-30T20:15:40.141Z,58.60
2023-11-30T20:18:08.274Z,50.30
2023-11-30T20:20:36.101Z,53.35
2023-11-30T20:23:05.442Z,53.30
2023-11-30T20:25:33.798Z,52.30
2023-11-30T20:28:01.519Z,50.70
2023-11-30T20:30:30.786Z,55.33
2023-11-30T20:32:58.844Z,53.38
2023-11-30T20:35:26.444Z,50.97
2023-11-30T20:37:54.123Z,55.28
2023-11-30T20:40:21.650Z,57.45
2023-11-30T20:42:50.606Z,54.83
2023-11-30T20:45:18.375Z,55.55
2023-11-30T20:47:46.023Z,62.88
2023-11-30T20:50:13.672Z,53.67
2023-11-30T20:52:41.386Z,50.13
2023-11-30T20:55:09.311Z,56.50
2023-11-30T20:57:39.431Z,62.67
2023-11-30T21:00:08.186Z,56.33
2023-11-30T21:02:35.817Z,59.55
2023-11-30T21:05:04.047Z,56.13
2023-11-30T21:07:31.829Z,62.40
2023-11-30T21:09:59.486Z,62.55
2023-11-30T21:12:27.241Z,61.85
2023-11-30T21:14:55.855Z,62.38
2023-11-30T21:17:23.931Z,58.50
2023-11-30T21:19:51.633Z,57.50
2023-11-30T21:22:19.432Z,66.82
2023-11-30T21:24:48.407Z,65.20
2023-11-30T21:27:16.089Z,62.38
2023-11-30T21:29:43.868Z,66.38
2023-11-30T21:32:11.619Z,68.45
2023-11-30T21:34:41.158Z,69.90
2023-11-30T21:37:08.897Z,67.38
2023-11-30T21:39:36.627Z,61.67
2023-11-30T21:42:04.446Z,63.85
2023-11-30T21:44:32.250Z,71.97
2023-11-30T21:46:59.784Z,68.38
2023-11-30T21:49:27.598Z,67.13
2023-11-30T21:51:55.347Z,71.07
2023-11-30T21:54:23.021Z,67.93
2023-11-30T21:56:50.607Z,63.70
2023-11-30T21:59:18.934Z,67.90
2023-11-30T22:01:46.992Z,68.45
2023-11-30T22:04:14.907Z,66.15
2023-11-30T22:06:44.414Z,65.80
2023-11-30T22:09:12.189Z,63.40
2023-11-30T22:11:45.287Z,64.35
2023-11-30T22:14:13.019Z,69.47
2023-11-30T22:16:41.692Z,57.78
2023-11-30T22:19:10.095Z,62.00
2023-11-30T22:21:37.805Z,61.03
2023-11-30T22:24:05.771Z,55.80
2023-11-30T22:26:33.427Z,53.85
2023-11-30T22:29:02.823Z,54.78
2023-11-30T22:31:34.731Z,58.97
2023-11-30T22:34:02.724Z,58.92
2023-11-30T22:36:30.647Z,55.03
2023-11-30T22:38:58.777Z,65.35
2023-11-30T22:41:26.485Z,61.70
2023-11-30T22:43:54.246Z,62.17
2023-11-30T22:46:22.443Z,63.95
2023-11-30T22:48:51.295Z,59.80
2023-11-30T22:51:19.426Z,66.13
2023-11-30T22:53:47.295Z,62.95
2023-11-30T22:56:22.104Z,62.67
2023-11-30T22:58:50.200Z,63.63
2023-11-30T23:01:18.564Z,58.35
2023-11-30T23:03:46.573Z,64.05
2023-11-30T23:06:14.886Z,66.25
2023-11-30T23:08:42.869Z,56.80
2023-11-30T23:11:11.265Z,57.88
2023-11-30T23:13:39.173Z,58.90
2023-11-30T23:16:07.812Z,57.33
2023-11-30T23:18:35.942Z,55.35
2023-11-30T23:21:04.088Z,54.78
2023-11-30T23:23:31.863Z,59.53
2023-11-30T23:25:59.478Z,60.55
2023-11-30T23:28:27.390Z,50.45
2023-11-30T23:30:55.185Z,52.13
2023-11-30T23:33:22.999Z,47.47
2023-11-30T23:35:50.757Z,49.55
2023-11-30T23:38:18.452Z,44.97
2023-11-30T23:40:46.041Z,58.45
2023-11-30T23:43:13.959Z,59.28
2023-11-30T23:45:43.332Z,51.10
2023-11-30T23:48:11.191Z,59.63
2023-11-30T23:50:39.017Z,58.97
2023-11-30T23:53:06.638Z,59.88
2023-11-30T23:55:34.277Z,54.60
2023-11-30T23:58:03.838Z,50.28
